sensor_id;sensor_type;location;lat;lon;timestamp;temperature;humidity
20732;DHT22;10527;52.124;5.196;2023-07-29T00:01:34;19.90;99.90
20732;DHT22;10527;52.124;5.196;2023-07-29T00:04:02;19.80;99.90
20732;DHT22;10527;52.124;5.196;2023-07-29T00:06:29;19.80;99.90
20732;DHT22;10527;52.124;5.196;2023-07-29T00:08:56;19.80;99.90
20732;DHT22;10527;52.124;5.196;2023-07-29T00:11:23;19.80;99.90
20732;DHT22;10527;52.124;5.196;2023-07-29T00:13:50;19.70;99.90
20732;DHT22;10527;52.124;5.196;2023-07-29T00:16:17;19.70;99.90
20732;DHT22;10527;52.124;5.196;2023-07-29T00:18:44;19.70;99.90
20732;DHT22;10527;52.124;5.196;2023-07-29T00:21:11;19.80;99.90
20732;DHT22;10527;52.124;5.196;2023-07-29T00:23:38;19.70;99.90
20732;DHT22;10527;52.124;5.196;2023-07-29T00:26:05;19.70;99.90
20732;DHT22;10527;52.124;5.196;2023-07-29T00:28:32;19.70;99.90
20732;DHT22;10527;52.124;5.196;2023-07-29T00:30:59;19.70;99.90
20732;DHT22;10527;52.124;5.196;2023-07-29T00:33:26;19.70;99.90
20732;DHT22;10527;52.124;5.196;2023-07-29T00:35:53;19.70;99.90
20732;DHT22;10527;52.124;5.196;2023-07-29T00:38:22;19.70;99.90
20732;DHT22;10527;52.124;5.196;2023-07-29T00:40:49;19.70;99.90
20732;DHT22;10527;52.124;5.196;2023-07-29T00:43:16;19.60;99.90
20732;DHT22;10527;52.124;5.196;2023-07-29T00:45:43;19.50;99.90
20732;DHT22;10527;52.124;5.196;2023-07-29T00:48:11;19.50;99.90
20732;DHT22;10527;52.124;5.196;2023-07-29T00:50:39;19.50;99.90
20732;DHT22;10527;52.124;5.196;2023-07-29T00:53:06;19.50;99.90
20732;DHT22;10527;52.124;5.196;2023-07-29T00:55:33;19.40;99.90
20732;DHT22;10527;52.124;5.196;2023-07-29T00:58:00;19.40;99.90
20732;DHT22;10527;52.124;5.196;2023-07-29T01:00:27;19.30;99.90
20732;DHT22;10527;52.124;5.196;2023-07-29T01:02:54;19.20;99.90
20732;DHT22;10527;52.124;5.196;2023-07-29T01:05:22;19.20;99.90
20732;DHT22;10527;52.124;5.196;2023-07-29T01:08:31;19.20;99.90
20732;DHT22;10527;52.124;5.196;2023-07-29T01:11:35;19.20;99.90
20732;DHT22;10527;52.124;5.196;2023-07-29T01:14:36;19.10;99.90
20732;DHT22;10527;52.124;5.196;2023-07-29T01:17:15;19.10;99.90
20732;DHT22;10527;52.124;5.196;2023-07-29T01:20:09;19.00;99.90
20732;DHT22;10527;52.124;5.196;2023-07-29T01:22:40;19.00;99.90
20732;DHT22;10527;52.124;5.196;2023-07-29T01:25:08;18.90;99.90
20732;DHT22;10527;52.124;5.196;2023-07-29T01:27:35;18.90;99.90
20732;DHT22;10527;52.124;5.196;2023-07-29T01:30:03;18.90;99.90
20732;DHT22;10527;52.124;5.196;2023-07-29T01:35:44;18.80;99.90
20732;DHT22;10527;52.124;5.196;2023-07-29T01:38:32;18.70;99.90
20732;DHT22;10527;52.124;5.196;2023-07-29T01:41:02;18.70;99.90
20732;DHT22;10527;52.124;5.196;2023-07-29T01:43:31;18.70;99.90
20732;DHT22;10527;52.124;5.196;2023-07-29T01:46:00;18.70;99.90
20732;DHT22;10527;52.124;5.196;2023-07-29T01:48:27;18.80;99.90
20732;DHT22;10527;52.124;5.196;2023-07-29T01:50:57;18.70;99.90
20732;DHT22;10527;52.124;5.196;2023-07-29T01:53:24;18.80;99.90
20732;DHT22;10527;52.124;5.196;2023-07-29T01:55:51;18.80;99.90
20732;DHT22;10527;52.124;5.196;2023-07-29T01:58:18;18.80;99.90
20732;DHT22;10527;52.124;5.196;2023-07-29T02:00:45;18.70;99.90
20732;DHT22;10527;52.124;5.196;2023-07-29T02:03:12;18.70;99.90
20732;DHT22;10527;52.124;5.196;2023-07-29T02:05:38;18.70;99.90
20732;DHT22;10527;52.124;5.196;2023-07-29T02:08:08;18.70;99.90
20732;DHT22;10527;52.124;5.196;2023-07-29T02:10:35;18.70;99.90
20732;DHT22;10527;52.124;5.196;2023-07-29T02:13:04;18.70;99.90
20732;DHT22;10527;52.124;5.196;2023-07-29T02:15:30;18.60;99.90
20732;DHT22;10527;52.124;5.196;2023-07-29T02:17:57;18.70;99.90
20732;DHT22;10527;52.124;5.196;2023-07-29T02:20:26;18.60;99.90
20732;DHT22;10527;52.124;5.196;2023-07-29T02:22:53;18.60;99.90
20732;DHT22;10527;52.124;5.196;2023-07-29T02:25:20;18.60;99.90
20732;DHT22;10527;52.124;5.196;2023-07-29T02:27:47;18.50;99.90
20732;DHT22;10527;52.124;5.196;2023-07-29T02:30:13;18.50;99.90
20732;DHT22;10527;52.124;5.196;2023-07-29T02:32:40;18.40;99.90
20732;DHT22;10527;52.124;5.196;2023-07-29T02:35:08;18.40;99.90
20732;DHT22;10527;52.124;5.196;2023-07-29T02:37:34;18.40;99.90
20732;DHT22;10527;52.124;5.196;2023-07-29T02:40:01;18.40;99.90
20732;DHT22;10527;52.124;5.196;2023-07-29T02:42:29;18.40;99.90
20732;DHT22;10527;52.124;5.196;2023-07-29T02:44:55;18.30;99.90
20732;DHT22;10527;52.124;5.196;2023-07-29T02:47:22;18.20;99.90
20732;DHT22;10527;52.124;5.196;2023-07-29T02:49:49;18.20;99.90
20732;DHT22;10527;52.124;5.196;2023-07-29T02:52:16;18.30;99.90
20732;DHT22;10527;52.124;5.196;2023-07-29T02:54:43;18.20;99.90
20732;DHT22;10527;52.124;5.196;2023-07-29T02:57:10;18.30;99.90
20732;DHT22;10527;52.124;5.196;2023-07-29T02:59:37;18.20;99.90
20732;DHT22;10527;52.124;5.196;2023-07-29T03:02:04;18.20;99.90
20732;DHT22;10527;52.124;5.196;2023-07-29T03:04:31;18.10;99.90
20732;DHT22;10527;52.124;5.196;2023-07-29T03:07:00;18.20;99.90
20732;DHT22;10527;52.124;5.196;2023-07-29T03:09:27;18.20;99.90
20732;DHT22;10527;52.124;5.196;2023-07-29T03:11:54;18.20;99.90
20732;DHT22;10527;52.124;5.196;2023-07-29T03:14:21;18.20;99.90
20732;DHT22;10527;52.124;5.196;2023-07-29T03:16:48;18.10;99.90
20732;DHT22;10527;52.124;5.196;2023-07-29T03:19:15;18.10;99.90
20732;DHT22;10527;52.124;5.196;2023-07-29T03:21:42;18.10;99.90
20732;DHT22;10527;52.124;5.196;2023-07-29T03:24:12;18.20;99.90
20732;DHT22;10527;52.124;5.196;2023-07-29T03:26:39;18.10;99.90
20732;DHT22;10527;52.124;5.196;2023-07-29T03:29:08;18.10;99.90
20732;DHT22;10527;52.124;5.196;2023-07-29T03:31:34;18.10;99.90
20732;DHT22;10527;52.124;5.196;2023-07-29T03:34:01;18.10;99.90
20732;DHT22;10527;52.124;5.196;2023-07-29T03:36:28;18.20;99.90
20732;DHT22;10527;52.124;5.196;2023-07-29T03:38:55;18.20;99.90
20732;DHT22;10527;52.124;5.196;2023-07-29T03:41:22;18.20;99.90
20732;DHT22;10527;52.124;5.196;2023-07-29T03:43:49;18.10;99.90
20732;DHT22;10527;52.124;5.196;2023-07-29T03:46:17;18.10;99.90
20732;DHT22;10527;52.124;5.196;2023-07-29T03:48:48;18.10;99.90
20732;DHT22;10527;52.124;5.196;2023-07-29T03:51:14;18.10;99.90
20732;DHT22;10527;52.124;5.196;2023-07-29T03:53:41;18.10;99.90
20732;DHT22;10527;52.124;5.196;2023-07-29T03:56:08;18.10;99.90
20732;DHT22;10527;52.124;5.196;2023-07-29T03:58:35;18.00;99.90
20732;DHT22;10527;52.124;5.196;2023-07-29T04:01:02;18.10;99.90
20732;DHT22;10527;52.124;5.196;2023-07-29T04:03:29;18.00;99.90
20732;DHT22;10527;52.124;5.196;2023-07-29T04:05:57;18.00;99.90
20732;DHT22;10527;52.124;5.196;2023-07-29T04:08:24;18.00;99.90
20732;DHT22;10527;52.124;5.196;2023-07-29T04:10:51;17.80;99.90
20732;DHT22;10527;52.124;5.196;2023-07-29T04:13:18;17.80;99.90
20732;DHT22;10527;52.124;5.196;2023-07-29T04:15:45;17.80;99.90
20732;DHT22;10527;52.124;5.196;2023-07-29T04:18:12;17.80;99.90
20732;DHT22;10527;52.124;5.196;2023-07-29T04:20:39;17.90;99.90
20732;DHT22;10527;52.124;5.196;2023-07-29T04:23:07;17.80;99.90
20732;DHT22;10527;52.124;5.196;2023-07-29T04:25:34;17.80;99.90
20732;DHT22;10527;52.124;5.196;2023-07-29T04:28:01;17.80;99.90
20732;DHT22;10527;52.124;5.196;2023-07-29T04:30:30;17.80;99.90
20732;DHT22;10527;52.124;5.196;2023-07-29T04:32:56;17.70;99.90
20732;DHT22;10527;52.124;5.196;2023-07-29T04:35:23;17.60;99.90
20732;DHT22;10527;52.124;5.196;2023-07-29T04:37:50;17.60;99.90
20732;DHT22;10527;52.124;5.196;2023-07-29T04:40:17;17.70;99.90
20732;DHT22;10527;52.124;5.196;2023-07-29T04:42:44;17.70;99.90
20732;DHT22;10527;52.124;5.196;2023-07-29T04:45:11;17.70;99.90
20732;DHT22;10527;52.124;5.196;2023-07-29T04:47:38;17.70;99.90
20732;DHT22;10527;52.124;5.196;2023-07-29T04:50:05;17.70;99.90
20732;DHT22;10527;52.124;5.196;2023-07-29T04:52:32;17.70;99.90
20732;DHT22;10527;52.124;5.196;2023-07-29T04:54:59;17.60;99.90
20732;DHT22;10527;52.124;5.196;2023-07-29T04:57:26;17.60;99.90
20732;DHT22;10527;52.124;5.196;2023-07-29T04:59:53;17.70;99.90
20732;DHT22;10527;52.124;5.196;2023-07-29T05:02:20;17.60;99.90
20732;DHT22;10527;52.124;5.196;2023-07-29T05:04:47;17.60;99.90
20732;DHT22;10527;52.124;5.196;2023-07-29T05:07:14;17.70;99.90
20732;DHT22;10527;52.124;5.196;2023-07-29T05:09:41;17.70;99.90
20732;DHT22;10527;52.124;5.196;2023-07-29T05:12:08;17.60;99.90
20732;DHT22;10527;52.124;5.196;2023-07-29T05:14:35;17.70;99.90
20732;DHT22;10527;52.124;5.196;2023-07-29T05:17:02;17.70;99.90
20732;DHT22;10527;52.124;5.196;2023-07-29T05:19:29;17.70;99.90
20732;DHT22;10527;52.124;5.196;2023-07-29T05:21:56;17.70;99.90
20732;DHT22;10527;52.124;5.196;2023-07-29T05:24:23;17.70;99.90
20732;DHT22;10527;52.124;5.196;2023-07-29T05:26:51;17.80;99.90
20732;DHT22;10527;52.124;5.196;2023-07-29T05:29:17;17.80;99.90
20732;DHT22;10527;52.124;5.196;2023-07-29T05:31:44;17.80;99.90
20732;DHT22;10527;52.124;5.196;2023-07-29T05:34:11;17.80;99.90
20732;DHT22;10527;52.124;5.196;2023-07-29T05:36:38;17.80;99.90
20732;DHT22;10527;52.124;5.196;2023-07-29T05:39:08;17.80;99.90
20732;DHT22;10527;52.124;5.196;2023-07-29T05:41:35;17.80;99.90
20732;DHT22;10527;52.124;5.196;2023-07-29T05:44:05;17.90;99.90
20732;DHT22;10527;52.124;5.196;2023-07-29T05:46:36;17.80;99.90
20732;DHT22;10527;52.124;5.196;2023-07-29T05:49:03;17.80;99.90
20732;DHT22;10527;52.124;5.196;2023-07-29T05:51:30;17.80;99.90
20732;DHT22;10527;52.124;5.196;2023-07-29T05:53:57;17.90;99.90
20732;DHT22;10527;52.124;5.196;2023-07-29T05:56:24;18.00;99.90
20732;DHT22;10527;52.124;5.196;2023-07-29T05:58:50;18.10;99.90
20732;DHT22;10527;52.124;5.196;2023-07-29T06:01:18;18.10;99.90
20732;DHT22;10527;52.124;5.196;2023-07-29T06:03:48;18.10;99.90
20732;DHT22;10527;52.124;5.196;2023-07-29T06:06:15;18.10;99.90
20732;DHT22;10527;52.124;5.196;2023-07-29T06:08:43;18.20;99.90
20732;DHT22;10527;52.124;5.196;2023-07-29T06:11:11;18.20;99.90
20732;DHT22;10527;52.124;5.196;2023-07-29T06:13:38;18.30;99.90
20732;DHT22;10527;52.124;5.196;2023-07-29T06:16:05;18.30;99.90
20732;DHT22;10527;52.124;5.196;2023-07-29T06:18:32;18.40;99.90
20732;DHT22;10527;52.124;5.196;2023-07-29T06:20:59;18.50;99.90
20732;DHT22;10527;52.124;5.196;2023-07-29T06:23:26;18.60;99.90
20732;DHT22;10527;52.124;5.196;2023-07-29T06:25:54;18.60;99.90
20732;DHT22;10527;52.124;5.196;2023-07-29T06:28:21;18.70;99.90
20732;DHT22;10527;52.124;5.196;2023-07-29T06:30:48;18.70;99.90
20732;DHT22;10527;52.124;5.196;2023-07-29T06:33:14;18.70;99.90
20732;DHT22;10527;52.124;5.196;2023-07-29T06:35:41;18.80;99.90
20732;DHT22;10527;52.124;5.196;2023-07-29T06:38:08;18.80;99.90
20732;DHT22;10527;52.124;5.196;2023-07-29T06:40:35;18.80;99.90
20732;DHT22;10527;52.124;5.196;2023-07-29T06:43:02;18.80;99.90
20732;DHT22;10527;52.124;5.196;2023-07-29T06:45:29;18.80;99.90
20732;DHT22;10527;52.124;5.196;2023-07-29T06:47:56;18.80;99.90
20732;DHT22;10527;52.124;5.196;2023-07-29T06:50:23;18.80;99.90
20732;DHT22;10527;52.124;5.196;2023-07-29T06:52:50;18.90;99.90
20732;DHT22;10527;52.124;5.196;2023-07-29T06:55:17;19.00;99.90
20732;DHT22;10527;52.124;5.196;2023-07-29T06:57:44;19.00;99.90
20732;DHT22;10527;52.124;5.196;2023-07-29T07:00:10;19.10;99.90
20732;DHT22;10527;52.124;5.196;2023-07-29T07:02:37;19.10;99.90
20732;DHT22;10527;52.124;5.196;2023-07-29T07:05:04;19.10;99.90
20732;DHT22;10527;52.124;5.196;2023-07-29T07:07:31;19.10;99.90
20732;DHT22;10527;52.124;5.196;2023-07-29T07:09:58;19.00;99.90
20732;DHT22;10527;52.124;5.196;2023-07-29T07:12:27;19.00;99.90
20732;DHT22;10527;52.124;5.196;2023-07-29T07:14:54;19.00;99.90
20732;DHT22;10527;52.124;5.196;2023-07-29T07:17:21;18.90;99.90
20732;DHT22;10527;52.124;5.196;2023-07-29T07:19:48;18.90;99.90
20732;DHT22;10527;52.124;5.196;2023-07-29T07:22:15;18.90;99.90
20732;DHT22;10527;52.124;5.196;2023-07-29T07:24:42;18.90;99.90
20732;DHT22;10527;52.124;5.196;2023-07-29T07:27:09;18.90;99.90
20732;DHT22;10527;52.124;5.196;2023-07-29T07:29:36;18.90;99.90
20732;DHT22;10527;52.124;5.196;2023-07-29T07:32:03;19.00;99.90
20732;DHT22;10527;52.124;5.196;2023-07-29T07:34:30;19.10;99.90
20732;DHT22;10527;52.124;5.196;2023-07-29T07:37:00;19.20;99.90
20732;DHT22;10527;52.124;5.196;2023-07-29T07:39:27;19.20;99.90
20732;DHT22;10527;52.124;5.196;2023-07-29T07:41:54;19.30;99.90
20732;DHT22;10527;52.124;5.196;2023-07-29T07:44:21;19.50;99.90
20732;DHT22;10527;52.124;5.196;2023-07-29T07:46:47;19.40;99.90
20732;DHT22;10527;52.124;5.196;2023-07-29T07:49:14;19.50;99.90
20732;DHT22;10527;52.124;5.196;2023-07-29T07:51:43;19.60;99.90
20732;DHT22;10527;52.124;5.196;2023-07-29T07:54:11;19.60;99.90
20732;DHT22;10527;52.124;5.196;2023-07-29T07:56:38;19.70;99.90
20732;DHT22;10527;52.124;5.196;2023-07-29T07:59:05;19.80;99.90
20732;DHT22;10527;52.124;5.196;2023-07-29T08:01:38;19.90;99.90
20732;DHT22;10527;52.124;5.196;2023-07-29T08:04:06;19.90;99.90
20732;DHT22;10527;52.124;5.196;2023-07-29T08:06:34;19.80;99.90
20732;DHT22;10527;52.124;5.196;2023-07-29T08:09:02;19.80;99.90
20732;DHT22;10527;52.124;5.196;2023-07-29T08:11:30;19.80;99.90
20732;DHT22;10527;52.124;5.196;2023-07-29T08:13:58;20.00;99.90
20732;DHT22;10527;52.124;5.196;2023-07-29T08:16:25;20.00;99.90
20732;DHT22;10527;52.124;5.196;2023-07-29T08:18:53;20.00;99.90
20732;DHT22;10527;52.124;5.196;2023-07-29T08:21:20;19.90;99.90
20732;DHT22;10527;52.124;5.196;2023-07-29T08:23:47;19.90;99.90
20732;DHT22;10527;52.124;5.196;2023-07-29T08:26:14;20.10;99.90
20732;DHT22;10527;52.124;5.196;2023-07-29T08:28:44;20.20;99.90
20732;DHT22;10527;52.124;5.196;2023-07-29T08:31:13;20.10;99.90
20732;DHT22;10527;52.124;5.196;2023-07-29T08:33:40;20.10;99.90
20732;DHT22;10527;52.124;5.196;2023-07-29T08:36:07;20.00;99.90
20732;DHT22;10527;52.124;5.196;2023-07-29T08:38:37;19.90;99.90
20732;DHT22;10527;52.124;5.196;2023-07-29T08:41:14;19.90;99.90
20732;DHT22;10527;52.124;5.196;2023-07-29T08:46:39;19.70;99.90
20732;DHT22;10527;52.124;5.196;2023-07-29T08:49:07;19.90;99.90
20732;DHT22;10527;52.124;5.196;2023-07-29T08:51:36;19.70;99.90
20732;DHT22;10527;52.124;5.196;2023-07-29T08:54:03;19.70;99.90
20732;DHT22;10527;52.124;5.196;2023-07-29T08:56:31;19.80;99.90
20732;DHT22;10527;52.124;5.196;2023-07-29T08:58:58;19.70;99.90
20732;DHT22;10527;52.124;5.196;2023-07-29T09:01:27;20.00;99.90
20732;DHT22;10527;52.124;5.196;2023-07-29T09:03:54;20.50;99.90
20732;DHT22;10527;52.124;5.196;2023-07-29T09:06:22;20.80;99.90
20732;DHT22;10527;52.124;5.196;2023-07-29T09:08:54;20.80;99.90
20732;DHT22;10527;52.124;5.196;2023-07-29T09:11:23;20.70;99.90
20732;DHT22;10527;52.124;5.196;2023-07-29T09:13:51;20.70;99.90
20732;DHT22;10527;52.124;5.196;2023-07-29T09:16:22;20.80;99.90
20732;DHT22;10527;52.124;5.196;2023-07-29T09:18:50;20.70;99.90
20732;DHT22;10527;52.124;5.196;2023-07-29T09:21:25;20.70;99.90
20732;DHT22;10527;52.124;5.196;2023-07-29T09:23:55;20.70;99.90
20732;DHT22;10527;52.124;5.196;2023-07-29T09:26:26;20.60;99.90
20732;DHT22;10527;52.124;5.196;2023-07-29T09:28:58;20.50;99.90
20732;DHT22;10527;52.124;5.196;2023-07-29T09:31:27;20.50;99.90
20732;DHT22;10527;52.124;5.196;2023-07-29T09:34:03;20.40;99.90
20732;DHT22;10527;52.124;5.196;2023-07-29T09:36:32;20.30;99.90
20732;DHT22;10527;52.124;5.196;2023-07-29T09:39:01;20.20;99.90
20732;DHT22;10527;52.124;5.196;2023-07-29T09:41:29;20.10;99.90
20732;DHT22;10527;52.124;5.196;2023-07-29T09:44:04;20.20;99.90
20732;DHT22;10527;52.124;5.196;2023-07-29T09:46:36;20.00;99.90
20732;DHT22;10527;52.124;5.196;2023-07-29T09:49:09;20.00;99.90
20732;DHT22;10527;52.124;5.196;2023-07-29T09:51:39;20.00;99.90
20732;DHT22;10527;52.124;5.196;2023-07-29T09:54:07;20.20;99.90
20732;DHT22;10527;52.124;5.196;2023-07-29T09:56:40;20.30;99.90
20732;DHT22;10527;52.124;5.196;2023-07-29T09:59:10;20.20;99.90
20732;DHT22;10527;52.124;5.196;2023-07-29T10:01:39;20.30;99.90
20732;DHT22;10527;52.124;5.196;2023-07-29T10:04:07;20.40;99.90
20732;DHT22;10527;52.124;5.196;2023-07-29T10:06:39;20.50;99.90
20732;DHT22;10527;52.124;5.196;2023-07-29T10:09:13;20.50;99.90
20732;DHT22;10527;52.124;5.196;2023-07-29T10:11:41;20.40;99.90
20732;DHT22;10527;52.124;5.196;2023-07-29T10:14:09;20.40;99.90
20732;DHT22;10527;52.124;5.196;2023-07-29T10:16:36;20.30;99.90
20732;DHT22;10527;52.124;5.196;2023-07-29T10:19:07;20.40;99.90
20732;DHT22;10527;52.124;5.196;2023-07-29T10:21:38;20.20;99.90
20732;DHT22;10527;52.124;5.196;2023-07-29T10:24:14;19.90;99.90
20732;DHT22;10527;52.124;5.196;2023-07-29T10:26:50;19.80;99.90
20732;DHT22;10527;52.124;5.196;2023-07-29T10:29:23;19.70;99.90
20732;DHT22;10527;52.124;5.196;2023-07-29T10:31:57;19.60;99.90
20732;DHT22;10527;52.124;5.196;2023-07-29T10:34:27;19.60;99.90
20732;DHT22;10527;52.124;5.196;2023-07-29T10:37:01;19.60;99.90
20732;DHT22;10527;52.124;5.196;2023-07-29T10:39:38;19.70;99.90
20732;DHT22;10527;52.124;5.196;2023-07-29T10:42:08;19.60;99.90
20732;DHT22;10527;52.124;5.196;2023-07-29T10:47:13;19.90;99.90
20732;DHT22;10527;52.124;5.196;2023-07-29T10:49:41;20.10;99.90
20732;DHT22;10527;52.124;5.196;2023-07-29T10:52:08;20.00;99.90
20732;DHT22;10527;52.124;5.196;2023-07-29T10:54:44;20.00;99.90
20732;DHT22;10527;52.124;5.196;2023-07-29T10:57:30;20.00;99.90
20732;DHT22;10527;52.124;5.196;2023-07-29T11:00:03;19.80;99.90
20732;DHT22;10527;52.124;5.196;2023-07-29T11:02:36;19.80;99.90
20732;DHT22;10527;52.124;5.196;2023-07-29T11:05:22;20.00;99.90
20732;DHT22;10527;52.124;5.196;2023-07-29T11:07:49;20.00;99.90
20732;DHT22;10527;52.124;5.196;2023-07-29T11:10:16;19.90;99.90
20732;DHT22;10527;52.124;5.196;2023-07-29T11:12:51;19.80;99.90
20732;DHT22;10527;52.124;5.196;2023-07-29T11:15:27;19.70;99.90
20732;DHT22;10527;52.124;5.196;2023-07-29T11:17:56;19.70;99.90
20732;DHT22;10527;52.124;5.196;2023-07-29T11:20:32;19.70;99.90
20732;DHT22;10527;52.124;5.196;2023-07-29T11:23:02;19.50;99.90
20732;DHT22;10527;52.124;5.196;2023-07-29T11:25:31;19.50;99.90
20732;DHT22;10527;52.124;5.196;2023-07-29T11:28:00;19.50;99.90
20732;DHT22;10527;52.124;5.196;2023-07-29T11:30:32;19.30;99.90
20732;DHT22;10527;52.124;5.196;2023-07-29T11:33:00;19.20;99.90
20732;DHT22;10527;52.124;5.196;2023-07-29T11:35:32;19.20;99.90
20732;DHT22;10527;52.124;5.196;2023-07-29T11:38:00;19.30;99.90
20732;DHT22;10527;52.124;5.196;2023-07-29T11:40:27;19.40;99.90
20732;DHT22;10527;52.124;5.196;2023-07-29T11:42:54;19.40;99.90
20732;DHT22;10527;52.124;5.196;2023-07-29T11:45:22;19.60;99.90
20732;DHT22;10527;52.124;5.196;2023-07-29T11:48:06;19.70;99.90
20732;DHT22;10527;52.124;5.196;2023-07-29T11:50:35;19.80;99.90
20732;DHT22;10527;52.124;5.196;2023-07-29T11:53:01;20.00;99.90
20732;DHT22;10527;52.124;5.196;2023-07-29T11:55:30;20.40;99.90
20732;DHT22;10527;52.124;5.196;2023-07-29T11:57:57;20.80;99.90
20732;DHT22;10527;52.124;5.196;2023-07-29T12:00:25;20.80;99.90
20732;DHT22;10527;52.124;5.196;2023-07-29T12:02:52;20.60;99.90
20732;DHT22;10527;52.124;5.196;2023-07-29T12:05:21;20.90;99.90
20732;DHT22;10527;52.124;5.196;2023-07-29T12:07:50;20.90;99.90
20732;DHT22;10527;52.124;5.196;2023-07-29T12:10:17;21.00;99.90
20732;DHT22;10527;52.124;5.196;2023-07-29T12:12:50;20.90;99.90
20732;DHT22;10527;52.124;5.196;2023-07-29T12:15:26;20.90;99.90
20732;DHT22;10527;52.124;5.196;2023-07-29T12:17:57;20.70;99.90
20732;DHT22;10527;52.124;5.196;2023-07-29T12:20:29;20.60;99.90
20732;DHT22;10527;52.124;5.196;2023-07-29T12:22:59;20.80;99.90
20732;DHT22;10527;52.124;5.196;2023-07-29T12:25:30;20.60;99.90
20732;DHT22;10527;52.124;5.196;2023-07-29T12:28:06;20.70;99.90
20732;DHT22;10527;52.124;5.196;2023-07-29T12:30:34;20.80;99.90
20732;DHT22;10527;52.124;5.196;2023-07-29T12:33:07;20.70;99.90
20732;DHT22;10527;52.124;5.196;2023-07-29T12:35:37;20.80;99.90
20732;DHT22;10527;52.124;5.196;2023-07-29T12:38:05;20.90;99.90
20732;DHT22;10527;52.124;5.196;2023-07-29T12:40:32;21.10;99.90
20732;DHT22;10527;52.124;5.196;2023-07-29T12:43:05;21.20;99.90
20732;DHT22;10527;52.124;5.196;2023-07-29T12:45:36;21.60;99.90
20732;DHT22;10527;52.124;5.196;2023-07-29T12:48:03;21.60;99.90
20732;DHT22;10527;52.124;5.196;2023-07-29T12:50:30;21.70;99.90
20732;DHT22;10527;52.124;5.196;2023-07-29T12:52:57;21.60;99.90
20732;DHT22;10527;52.124;5.196;2023-07-29T12:55:23;21.40;99.90
20732;DHT22;10527;52.124;5.196;2023-07-29T12:57:51;21.40;99.90
20732;DHT22;10527;52.124;5.196;2023-07-29T13:00:18;21.70;99.90
20732;DHT22;10527;52.124;5.196;2023-07-29T13:02:45;22.00;99.90
20732;DHT22;10527;52.124;5.196;2023-07-29T13:05:12;21.80;99.90
20732;DHT22;10527;52.124;5.196;2023-07-29T13:07:39;21.70;99.90
20732;DHT22;10527;52.124;5.196;2023-07-29T13:10:10;21.60;99.90
20732;DHT22;10527;52.124;5.196;2023-07-29T13:12:46;21.50;99.90
20732;DHT22;10527;52.124;5.196;2023-07-29T13:15:13;21.50;99.90
20732;DHT22;10527;52.124;5.196;2023-07-29T13:17:42;21.80;99.90
20732;DHT22;10527;52.124;5.196;2023-07-29T13:20:09;22.00;99.90
20732;DHT22;10527;52.124;5.196;2023-07-29T13:22:36;22.10;99.90
20732;DHT22;10527;52.124;5.196;2023-07-29T13:25:03;22.50;99.90
20732;DHT22;10527;52.124;5.196;2023-07-29T13:27:32;22.80;99.90
20732;DHT22;10527;52.124;5.196;2023-07-29T13:29:59;23.00;99.90
20732;DHT22;10527;52.124;5.196;2023-07-29T13:32:25;23.10;99.90
20732;DHT22;10527;52.124;5.196;2023-07-29T13:34:53;23.20;99.90
20732;DHT22;10527;52.124;5.196;2023-07-29T13:37:19;23.30;99.90
20732;DHT22;10527;52.124;5.196;2023-07-29T13:39:46;23.20;99.90
20732;DHT22;10527;52.124;5.196;2023-07-29T13:42:13;23.10;99.90
20732;DHT22;10527;52.124;5.196;2023-07-29T13:44:41;23.20;99.90
20732;DHT22;10527;52.124;5.196;2023-07-29T13:47:08;23.30;99.90
20732;DHT22;10527;52.124;5.196;2023-07-29T13:49:35;23.30;99.90
20732;DHT22;10527;52.124;5.196;2023-07-29T13:52:02;23.20;99.90
20732;DHT22;10527;52.124;5.196;2023-07-29T13:54:29;22.90;99.90
20732;DHT22;10527;52.124;5.196;2023-07-29T13:56:56;22.80;99.90
20732;DHT22;10527;52.124;5.196;2023-07-29T13:59:22;22.70;99.90
20732;DHT22;10527;52.124;5.196;2023-07-29T14:01:49;22.60;99.90
20732;DHT22;10527;52.124;5.196;2023-07-29T14:04:16;22.60;99.90
20732;DHT22;10527;52.124;5.196;2023-07-29T14:06:43;22.50;99.90
20732;DHT22;10527;52.124;5.196;2023-07-29T14:09:16;22.60;99.90
20732;DHT22;10527;52.124;5.196;2023-07-29T14:11:43;22.90;99.90
20732;DHT22;10527;52.124;5.196;2023-07-29T14:14:10;23.20;99.90
20732;DHT22;10527;52.124;5.196;2023-07-29T14:16:37;23.30;99.90
20732;DHT22;10527;52.124;5.196;2023-07-29T14:19:04;23.10;99.90
20732;DHT22;10527;52.124;5.196;2023-07-29T14:21:31;23.30;99.90
20732;DHT22;10527;52.124;5.196;2023-07-29T14:23:58;23.40;99.90
20732;DHT22;10527;52.124;5.196;2023-07-29T14:26:25;23.30;99.90
20732;DHT22;10527;52.124;5.196;2023-07-29T14:28:51;23.10;99.90
20732;DHT22;10527;52.124;5.196;2023-07-29T14:31:18;23.10;99.90
20732;DHT22;10527;52.124;5.196;2023-07-29T14:33:46;23.00;99.90
20732;DHT22;10527;52.124;5.196;2023-07-29T14:36:13;22.90;99.90
20732;DHT22;10527;52.124;5.196;2023-07-29T14:38:39;23.00;99.90
20732;DHT22;10527;52.124;5.196;2023-07-29T14:41:07;23.10;99.90
20732;DHT22;10527;52.124;5.196;2023-07-29T14:43:35;23.40;99.90
20732;DHT22;10527;52.124;5.196;2023-07-29T14:46:02;23.50;99.90
20732;DHT22;10527;52.124;5.196;2023-07-29T14:48:29;23.50;99.90
20732;DHT22;10527;52.124;5.196;2023-07-29T14:50:57;23.30;99.90
20732;DHT22;10527;52.124;5.196;2023-07-29T14:53:24;23.00;99.90
20732;DHT22;10527;52.124;5.196;2023-07-29T14:55:51;22.90;99.90
20732;DHT22;10527;52.124;5.196;2023-07-29T14:58:18;22.80;99.90
20732;DHT22;10527;52.124;5.196;2023-07-29T15:00:45;22.80;99.90
20732;DHT22;10527;52.124;5.196;2023-07-29T15:03:12;22.70;99.90
20732;DHT22;10527;52.124;5.196;2023-07-29T15:05:39;22.70;99.90
20732;DHT22;10527;52.124;5.196;2023-07-29T15:08:07;22.80;99.90
20732;DHT22;10527;52.124;5.196;2023-07-29T15:10:33;22.90;99.90
20732;DHT22;10527;52.124;5.196;2023-07-29T15:13:01;22.90;99.90
20732;DHT22;10527;52.124;5.196;2023-07-29T15:15:29;22.60;99.90
20732;DHT22;10527;52.124;5.196;2023-07-29T15:17:57;22.70;99.90
20732;DHT22;10527;52.124;5.196;2023-07-29T15:20:24;22.60;99.90
20732;DHT22;10527;52.124;5.196;2023-07-29T15:22:51;22.60;99.90
20732;DHT22;10527;52.124;5.196;2023-07-29T15:25:18;22.60;99.90
20732;DHT22;10527;52.124;5.196;2023-07-29T15:27:45;22.80;99.90
20732;DHT22;10527;52.124;5.196;2023-07-29T15:30:11;23.00;99.90
20732;DHT22;10527;52.124;5.196;2023-07-29T15:32:39;23.20;99.90
20732;DHT22;10527;52.124;5.196;2023-07-29T15:35:09;23.30;99.90
20732;DHT22;10527;52.124;5.196;2023-07-29T15:37:35;23.30;99.90
20732;DHT22;10527;52.124;5.196;2023-07-29T15:40:03;23.30;99.90
20732;DHT22;10527;52.124;5.196;2023-07-29T15:42:31;23.00;99.90
20732;DHT22;10527;52.124;5.196;2023-07-29T15:44:58;23.20;99.90
20732;DHT22;10527;52.124;5.196;2023-07-29T15:47:25;23.40;99.90